Time;durP1;ratioP1;P1;durP2;ratioP2;P2;SDS_P1;SDS_P2;PMS_P1;PMS_P2;Temp;Humidity;BMP_temperature;BMP_pressure;BME280_temperature;BME280_humidity;BME280_pressure;Samples;Min_cycle;Max_cycle;Signal;HPM_P1;HPM_P2
2022/05/08 00:02:04;;;;;;;16.88;13.07;;;17.00;97.80;;;;;;5040730;28;20562;-34
2022/05/08 00:04:32;;;;;;;15.93;12.68;;;16.90;97.80;;;;;;5033643;28;20204;-36
2022/05/08 00:06:59;;;;;;;16.10;12.98;;;16.90;98.00;;;;;;5034338;28;20235;-36
2022/05/08 00:09:26;;;;;;;15.68;12.15;;;16.90;98.10;;;;;;5048109;28;20216;-36
2022/05/08 00:11:53;;;;;;;15.52;12.10;;;16.80;98.00;;;;;;5030322;28;20339;-36
2022/05/08 00:14:21;;;;;;;17.13;12.38;;;16.80;97.90;;;;;;5031231;28;20232;-36
2022/05/08 00:16:50;;;;;;;16.05;12.73;;;16.80;97.90;;;;;;5039095;28;20609;-35
2022/05/08 00:19:18;;;;;;;15.52;12.13;;;16.80;97.90;;;;;;5046242;28;20782;-35
2022/05/08 00:21:45;;;;;;;13.82;11.32;;;16.80;98.00;;;;;;5038190;28;20255;-35
2022/05/08 00:24:12;;;;;;;14.38;12.60;;;16.70;97.90;;;;;;5032942;28;20204;-35
2022/05/08 00:26:40;;;;;;;14.32;11.38;;;16.70;97.90;;;;;;5044380;28;20201;-35
2022/05/08 00:29:10;;;;;;;15.10;11.82;;;16.70;98.00;;;;;;5036268;28;20228;-35
2022/05/08 00:31:38;;;;;;;13.48;11.02;;;16.70;98.10;;;;;;5039311;28;20290;-35
2022/05/08 00:34:05;;;;;;;12.77;10.65;;;16.60;98.00;;;;;;5028324;28;20247;-36
2022/05/08 00:36:38;;;;;;;13.43;10.63;;;16.60;98.00;;;;;;5040749;28;20204;-38
2022/05/08 00:39:06;;;;;;;12.73;9.95;;;16.60;98.10;;;;;;5037457;28;20209;-38
2022/05/08 00:41:35;;;;;;;13.98;10.48;;;16.50;98.00;;;;;;5034584;28;20192;-38
2022/05/08 00:44:03;;;;;;;11.15;9.85;;;16.50;98.00;;;;;;5028229;28;20555;-38
2022/05/08 00:46:31;;;;;;;14.05;10.75;;;16.50;98.00;;;;;;5042618;28;20235;-38
2022/05/08 00:48:58;;;;;;;12.43;9.95;;;16.50;98.00;;;;;;5047718;28;20741;-38
2022/05/08 00:51:27;;;;;;;12.02;10.38;;;16.50;98.10;;;;;;5028971;28;20416;-38
2022/05/08 00:54:01;;;;;;;13.52;9.93;;;16.40;98.00;;;;;;5029052;28;20278;-38
2022/05/08 00:56:29;;;;;;;15.00;10.13;;;16.40;98.10;;;;;;5043313;28;20201;-38
2022/05/08 00:58:56;;;;;;;10.48;9.18;;;16.40;98.10;;;;;;5030289;28;20192;-38
2022/05/08 01:01:24;;;;;;;12.05;9.93;;;16.40;98.20;;;;;;5040927;28;20228;-38
2022/05/08 01:03:51;;;;;;;10.57;9.30;;;16.30;98.10;;;;;;5045829;28;20216;-38
2022/05/08 01:06:21;;;;;;;10.32;8.57;;;16.30;98.20;;;;;;5046113;28;20231;-38
2022/05/08 01:08:50;;;;;;;10.88;9.00;;;16.30;98.30;;;;;;5040354;28;20214;-38
2022/05/08 01:11:18;;;;;;;12.30;9.10;;;16.30;98.30;;;;;;5041172;28;20672;-38
2022/05/08 01:13:45;;;;;;;11.07;8.48;;;16.30;98.30;;;;;;5035182;28;20455;-38
2022/05/08 01:16:15;;;;;;;10.93;8.50;;;16.20;98.30;;;;;;5040279;28;20290;-38
2022/05/08 01:18:44;;;;;;;11.82;8.68;;;16.20;98.20;;;;;;5044563;28;20286;-38
2022/05/08 01:21:16;;;;;;;10.75;8.13;;;16.20;98.20;;;;;;5034329;28;20251;-38
2022/05/08 01:23:45;;;;;;;9.50;8.43;;;16.20;98.10;;;;;;5044133;28;20785;-38
2022/05/08 01:26:21;;;;;;;8.98;7.43;;;16.10;98.10;;;;;;5039498;28;20212;-38
2022/05/08 01:28:48;;;;;;;8.90;7.63;;;16.10;98.20;;;;;;5030989;28;20216;-38
2022/05/08 01:31:15;;;;;;;9.18;7.90;;;16.10;98.30;;;;;;5038247;28;20494;-38
2022/05/08 01:33:43;;;;;;;10.07;7.60;;;16.00;98.20;;;;;;5028187;28;20299;-38
2022/05/08 01:36:10;;;;;;;10.45;7.63;;;16.00;98.10;;;;;;5028279;28;20217;-38
2022/05/08 01:38:37;;;;;;;9.35;7.35;;;16.00;98.20;;;;;;5036567;28;20197;-38
2022/05/08 01:41:08;;;;;;;9.40;7.50;;;16.00;98.10;;;;;;5048735;28;20203;-38
2022/05/08 01:43:36;;;;;;;8.40;7.18;;;16.00;98.10;;;;;;5020784;28;20629;-38
2022/05/08 01:46:04;;;;;;;10.05;7.57;;;15.90;98.10;;;;;;5034057;28;20217;-38
2022/05/08 01:48:32;;;;;;;9.68;6.97;;;15.90;98.10;;;;;;5030026;28;20201;-38
2022/05/08 01:51:06;;;;;;;9.93;7.68;;;15.90;98.10;;;;;;5027229;28;20530;-38
2022/05/08 01:53:34;;;;;;;10.88;6.97;;;15.80;98.10;;;;;;5028102;28;20216;-38
2022/05/08 01:56:05;;;;;;;9.43;7.00;;;15.80;98.10;;;;;;5037403;28;20591;-38
2022/05/08 01:58:32;;;;;;;9.07;6.82;;;15.80;98.30;;;;;;5039410;28;20211;-39
2022/05/08 02:01:04;;;;;;;8.20;6.53;;;15.70;98.20;;;;;;5040094;28;20303;-38
2022/05/08 02:03:35;;;;;;;8.25;6.75;;;15.70;98.30;;;;;;5036685;28;20212;-39
2022/05/08 02:06:02;;;;;;;7.78;6.13;;;15.70;98.20;;;;;;5043552;28;20208;-38
2022/05/08 02:08:29;;;;;;;7.20;6.50;;;15.60;98.10;;;;;;5039358;28;20558;-39
2022/05/08 02:10:57;;;;;;;8.50;6.35;;;15.60;98.10;;;;;;5034431;28;20243;-37
2022/05/08 02:13:24;;;;;;;8.27;7.18;;;15.60;98.00;;;;;;5028766;28;20323;-34
2022/05/08 02:15:53;;;;;;;8.48;6.30;;;15.60;98.00;;;;;;5027019;28;20263;-35
2022/05/08 02:18:21;;;;;;;8.45;6.28;;;15.50;98.00;;;;;;5031753;28;20200;-36
2022/05/08 02:20:48;;;;;;;7.80;5.85;;;15.50;98.00;;;;;;5035795;28;20197;-38
2022/05/08 02:23:15;;;;;;;7.55;5.60;;;15.50;97.90;;;;;;5027816;28;20217;-36
2022/05/08 02:25:42;;;;;;;6.82;5.43;;;15.50;98.10;;;;;;5028964;28;20232;-37
2022/05/08 02:28:12;;;;;;;9.30;5.90;;;15.40;97.90;;;;;;5027638;28;20216;-37
2022/05/08 02:30:39;;;;;;;7.45;5.70;;;15.40;97.90;;;;;;5033899;28;20705;-35
2022/05/08 02:33:07;;;;;;;6.43;5.35;;;15.40;97.90;;;;;;5043804;28;20270;-36
2022/05/08 02:35:34;;;;;;;6.88;5.28;;;15.40;97.90;;;;;;5033796;28;20331;-36
2022/05/08 02:38:04;;;;;;;6.95;5.85;;;15.40;98.00;;;;;;5029834;28;20278;-35
2022/05/08 02:40:33;;;;;;;6.97;5.43;;;15.30;98.20;;;;;;5031333;28;20736;-35
2022/05/08 02:43:01;;;;;;;6.00;4.90;;;15.30;98.00;;;;;;5027651;28;20239;-35
2022/05/08 02:45:28;;;;;;;5.93;4.63;;;15.30;98.00;;;;;;5027266;28;20267;-35
2022/05/08 02:47:56;;;;;;;7.13;5.18;;;15.30;97.90;;;;;;5027186;28;20292;-35
2022/05/08 02:50:24;;;;;;;7.00;5.10;;;15.40;98.10;;;;;;5041972;28;20644;-34
2022/05/08 02:52:54;;;;;;;5.43;4.82;;;15.40;98.40;;;;;;5032083;28;20197;-35
2022/05/08 03:00:55;;;;;;;10.05;5.53;;;15.30;98.10;;;;;;5030059;28;20211;-36
2022/05/08 03:03:23;;;;;;;8.03;5.47;;;15.30;98.30;;;;;;5029982;28;20209;-36
2022/05/08 03:05:51;;;;;;;6.23;5.13;;;15.30;98.20;;;;;;5031347;28;20377;-37
2022/05/08 03:08:19;;;;;;;6.75;4.80;;;15.30;98.20;;;;;;5036284;28;20244;-36
2022/05/08 03:13:36;;;;;;;8.47;5.10;;;15.30;98.20;;;;;;5043446;28;20232;-38
2022/05/08 03:16:04;;;;;;;6.18;5.47;;;15.30;98.10;;;;;;5038835;28;20571;-38
2022/05/08 03:18:32;;;;;;;7.60;5.27;;;15.30;98.30;;;;;;5035896;28;20201;-38
2022/05/08 03:21:02;;;;;;;9.07;5.13;;;15.30;98.20;;;;;;5045398;28;20200;-38
2022/05/08 03:23:30;;;;;;;8.90;5.63;;;15.30;98.30;;;;;;5030876;28;20197;-38
2022/05/08 03:25:57;;;;;;;7.87;5.50;;;15.30;98.40;;;;;;5030641;28;21011;-38
2022/05/08 03:28:24;;;;;;;7.40;5.68;;;15.30;98.20;;;;;;5030803;28;20205;-38
2022/05/08 03:30:51;;;;;;;7.53;5.13;;;15.30;98.40;;;;;;5031260;28;20232;-38
2022/05/08 03:33:19;;;;;;;8.07;5.20;;;15.30;98.40;;;;;;5046452;28;20589;-38
2022/05/08 03:35:46;;;;;;;7.68;4.93;;;15.30;98.40;;;;;;5047164;28;20235;-38
2022/05/08 03:38:13;;;;;;;6.68;5.07;;;15.20;98.30;;;;;;5041824;28;20204;-38
2022/05/08 03:40:43;;;;;;;7.63;5.53;;;15.30;98.30;;;;;;5013080;28;20574;-38
2022/05/08 03:43:10;;;;;;;7.47;5.35;;;15.30;98.30;;;;;;5029975;28;20201;-38
2022/05/08 03:45:38;;;;;;;7.35;5.35;;;15.30;98.30;;;;;;5030062;28;20625;-38
2022/05/08 03:48:06;;;;;;;8.05;5.55;;;15.40;98.50;;;;;;5030533;28;20554;-39
2022/05/08 03:50:36;;;;;;;7.25;5.35;;;15.30;98.50;;;;;;5039704;28;20568;-39
2022/05/08 03:53:05;;;;;;;7.28;5.22;;;15.30;98.40;;;;;;5032513;28;20244;-38
2022/05/08 03:55:32;;;;;;;8.02;5.47;;;15.40;98.40;;;;;;5034410;28;20648;-38
2022/05/08 03:58:00;;;;;;;9.07;5.40;;;15.40;98.40;;;;;;5036609;28;20270;-38
2022/05/08 04:00:27;;;;;;;9.20;5.43;;;15.40;98.40;;;;;;5036112;28;20205;-39
2022/05/08 04:02:55;;;;;;;6.32;5.00;;;15.40;98.40;;;;;;5038752;28;20671;-38
2022/05/08 04:05:23;;;;;;;8.80;5.45;;;15.40;98.70;;;;;;5030062;28;20686;-39
2022/05/08 04:07:52;;;;;;;10.05;5.65;;;15.40;98.80;;;;;;5045676;28;20313;-39
2022/05/08 04:10:20;;;;;;;8.38;5.55;;;15.40;98.60;;;;;;5047911;28;20212;-38
2022/05/08 04:12:47;;;;;;;8.52;4.97;;;15.40;98.70;;;;;;5031125;28;20239;-39
2022/05/08 04:18:00;;;;;;;7.97;5.40;;;15.50;98.60;;;;;;5031197;28;20291;-38
2022/05/08 04:20:28;;;;;;;8.25;5.70;;;15.50;98.60;;;;;;5032816;28;20211;-38
2022/05/08 04:25:43;;;;;;;7.57;5.23;;;15.40;98.70;;;;;;5029996;28;20243;-36
2022/05/08 04:28:11;;;;;;;6.93;5.50;;;15.40;98.60;;;;;;5029184;28;20211;-36
2022/05/08 04:30:39;;;;;;;10.73;6.13;;;15.40;98.80;;;;;;5039068;28;20212;-36
2022/05/08 04:33:06;;;;;;;7.15;5.38;;;15.50;98.70;;;;;;5034504;28;20588;-36
2022/05/08 04:35:33;;;;;;;6.80;5.60;;;15.50;98.80;;;;;;5028212;28;20668;-35
2022/05/08 04:38:00;;;;;;;8.97;6.67;;;15.50;98.80;;;;;;5029249;28;20611;-36
2022/05/08 04:40:28;;;;;;;9.03;6.17;;;15.50;98.80;;;;;;5029490;28;20205;-37
2022/05/08 04:42:56;;;;;;;11.70;6.10;;;15.50;98.80;;;;;;5039440;28;20236;-38
2022/05/08 04:45:23;;;;;;;9.13;6.32;;;15.50;98.80;;;;;;5039281;28;20659;-39
2022/05/08 04:47:54;;;;;;;10.05;7.07;;;15.50;98.80;;;;;;5042739;28;20243;-39
2022/05/08 04:50:22;;;;;;;9.90;6.15;;;15.50;98.80;;;;;;5037503;28;20307;-39
2022/05/08 04:52:51;;;;;;;9.25;6.00;;;15.50;98.70;;;;;;5031259;28;20310;-39
2022/05/08 04:55:18;;;;;;;9.90;6.47;;;15.50;98.80;;;;;;5031769;28;20664;-38
2022/05/08 04:57:46;;;;;;;9.07;6.50;;;15.50;98.80;;;;;;5037899;28;20692;-39
2022/05/08 05:00:13;;;;;;;9.53;6.57;;;15.50;98.90;;;;;;5040486;28;20242;-39
2022/05/08 05:02:45;;;;;;;8.57;6.07;;;15.50;98.80;;;;;;5035179;28;20254;-38
2022/05/08 05:05:13;;;;;;;11.67;6.20;;;15.50;98.80;;;;;;5037664;28;20625;-38
2022/05/08 05:07:40;;;;;;;8.35;6.55;;;15.50;98.90;;;;;;5036613;28;20205;-39
2022/05/08 05:10:10;;;;;;;7.35;6.18;;;15.50;98.90;;;;;;5047836;28;20266;-38
2022/05/08 05:12:42;;;;;;;9.30;6.43;;;15.50;98.90;;;;;;5042461;28;20647;-39
2022/05/08 05:15:11;;;;;;;8.45;6.10;;;15.50;98.80;;;;;;5036274;28;20227;-39
2022/05/08 05:17:39;;;;;;;9.30;6.50;;;15.50;99.00;;;;;;5041994;28;20209;-39
2022/05/08 05:20:07;;;;;;;8.80;6.32;;;15.50;98.90;;;;;;5039428;28;20205;-39
2022/05/08 05:22:35;;;;;;;12.47;7.07;;;15.50;98.80;;;;;;5036867;28;20201;-39
2022/05/08 05:25:03;;;;;;;12.53;6.73;;;15.50;98.80;;;;;;5044774;28;20196;-38
2022/05/08 05:27:32;;;;;;;11.45;7.43;;;15.40;98.90;;;;;;5038625;28;20645;-39
2022/05/08 05:30:03;;;;;;;10.35;6.78;;;15.40;99.00;;;;;;5036154;28;20214;-39
2022/05/08 05:32:31;;;;;;;7.73;6.90;;;15.40;99.10;;;;;;5029586;28;20259;-39
2022/05/08 05:35:00;;;;;;;12.50;8.02;;;15.40;99.00;;;;;;5041205;28;20274;-39
2022/05/08 05:37:28;;;;;;;11.68;7.50;;;15.40;99.00;;;;;;5047336;28;20298;-39
2022/05/08 05:39:55;;;;;;;10.10;7.38;;;15.40;98.90;;;;;;5039902;28;20295;-39
2022/05/08 05:42:23;;;;;;;9.23;7.50;;;15.30;98.90;;;;;;5028766;28;20211;-39
2022/05/08 05:44:51;;;;;;;11.63;7.50;;;15.30;99.00;;;;;;5031991;28;20331;-39
2022/05/08 05:50:08;;;;;;;9.30;7.68;;;15.30;99.20;;;;;;5028840;28;20200;-39
2022/05/08 05:52:36;;;;;;;10.48;8.35;;;15.20;99.10;;;;;;5032754;28;20709;-39
2022/05/08 05:55:06;;;;;;;10.63;8.50;;;15.30;99.10;;;;;;5031735;28;20233;-39
2022/05/08 05:57:34;;;;;;;8.80;7.90;;;15.30;99.20;;;;;;5039024;28;20261;-39
2022/05/08 06:00:08;;;;;;;8.85;7.95;;;15.30;99.20;;;;;;5024944;28;20200;-39
2022/05/08 06:02:36;;;;;;;11.30;8.02;;;15.30;99.20;;;;;;5036218;28;20706;-38
2022/05/08 06:05:06;;;;;;;10.43;8.55;;;15.30;99.10;;;;;;5023371;28;20590;-40
2022/05/08 06:07:34;;;;;;;11.85;9.18;;;15.30;99.30;;;;;;5038075;28;20704;-38
2022/05/08 06:10:04;;;;;;;15.25;8.45;;;15.30;99.50;;;;;;5026970;28;20561;-38
2022/05/08 06:12:32;;;;;;;12.10;7.77;;;15.30;99.20;;;;;;5028812;28;20261;-36
2022/05/08 06:15:00;;;;;;;11.80;8.83;;;15.40;99.00;;;;;;5035592;28;20378;-36
2022/05/08 06:17:28;;;;;;;14.35;8.20;;;15.40;99.00;;;;;;5037874;28;20606;-35
2022/05/08 06:19:55;;;;;;;9.88;7.88;;;15.40;99.10;;;;;;5041361;28;20299;-38
2022/05/08 06:22:24;;;;;;;8.73;7.32;;;15.40;99.00;;;;;;5027603;28;20205;-39
2022/05/08 06:24:52;;;;;;;12.00;8.27;;;15.40;99.10;;;;;;5029693;28;20200;-38
2022/05/08 06:27:19;;;;;;;11.10;7.97;;;15.50;99.10;;;;;;5045480;28;20224;-39
2022/05/08 06:29:46;;;;;;;12.27;8.27;;;15.50;99.10;;;;;;5031488;28;20228;-39
2022/05/08 06:32:14;;;;;;;11.83;7.93;;;15.40;99.10;;;;;;5037274;28;20215;-39
2022/05/08 06:34:42;;;;;;;11.60;7.70;;;15.40;99.00;;;;;;5040359;28;20240;-39
2022/05/08 06:37:09;;;;;;;11.30;8.10;;;15.50;99.00;;;;;;5046325;28;20269;-39
2022/05/08 06:39:37;;;;;;;12.05;8.23;;;15.50;99.10;;;;;;5037249;28;20303;-39
2022/05/08 06:42:08;;;;;;;12.00;8.38;;;15.50;99.10;;;;;;5033220;28;20705;-39
2022/05/08 06:44:35;;;;;;;14.70;8.35;;;15.60;99.10;;;;;;5043802;28;20620;-38
2022/05/08 06:47:04;;;;;;;10.52;7.90;;;15.60;99.10;;;;;;5028392;28;20783;-38
2022/05/08 06:49:34;;;;;;;8.48;7.40;;;15.60;99.00;;;;;;5035427;28;20622;-38
2022/05/08 06:52:02;;;;;;;13.00;8.27;;;15.70;99.00;;;;;;5036317;28;20207;-38
2022/05/08 06:54:29;;;;;;;11.97;7.53;;;15.70;99.00;;;;;;5043588;28;20212;-38
2022/05/08 06:56:56;;;;;;;13.90;7.70;;;15.80;99.10;;;;;;5041334;28;20465;-37
2022/05/08 07:02:11;;;;;;;12.57;8.07;;;15.70;99.10;;;;;;5027387;28;20208;-36
2022/05/08 07:04:39;;;;;;;9.57;8.02;;;15.80;99.00;;;;;;5034585;28;20212;-37
2022/05/08 07:07:06;;;;;;;11.38;8.02;;;15.80;99.00;;;;;;5040763;28;20680;-38
2022/05/08 07:09:35;;;;;;;13.48;7.95;;;15.80;99.00;;;;;;5032904;28;20669;-39
2022/05/08 07:12:02;;;;;;;12.48;8.43;;;15.80;99.00;;;;;;5046435;28;20578;-38
2022/05/08 07:14:30;;;;;;;11.93;8.43;;;15.80;99.00;;;;;;5041838;28;20227;-39
2022/05/08 07:16:57;;;;;;;11.88;7.53;;;15.90;99.00;;;;;;5040667;28;20211;-39
2022/05/08 07:19:24;;;;;;;12.98;7.88;;;15.90;99.00;;;;;;5027821;28;20715;-38
2022/05/08 07:21:52;;;;;;;11.15;7.88;;;16.00;99.00;;;;;;5025376;28;20228;-38
2022/05/08 07:24:21;;;;;;;13.68;7.97;;;16.10;99.10;;;;;;5037735;28;20193;-38
2022/05/08 07:26:48;;;;;;;10.70;7.40;;;16.20;98.90;;;;;;5036110;28;20707;-39
2022/05/08 07:29:15;;;;;;;13.93;8.32;;;16.20;98.90;;;;;;5045576;28;20223;-38
2022/05/08 07:31:43;;;;;;;11.40;8.00;;;16.20;98.70;;;;;;5027162;28;20201;-38
2022/05/08 07:36:56;;;;;;;14.88;7.47;;;16.20;98.70;;;;;;5040140;28;20746;-38
2022/05/08 07:39:23;;;;;;;12.82;7.18;;;16.20;98.80;;;;;;5034005;28;20213;-39
2022/05/08 07:41:51;;;;;;;13.73;8.25;;;16.20;98.80;;;;;;5046432;28;20295;-38
2022/05/08 07:44:21;;;;;;;16.05;8.27;;;16.20;98.70;;;;;;5040511;28;20223;-39
2022/05/08 07:46:51;;;;;;;13.68;8.93;;;16.30;98.70;;;;;;5044575;28;20303;-38
2022/05/08 07:49:21;;;;;;;14.15;8.30;;;16.30;98.70;;;;;;5034030;28;20587;-38
2022/05/08 07:51:48;;;;;;;13.18;7.68;;;16.30;98.70;;;;;;5030052;28;20687;-38
2022/05/08 07:54:15;;;;;;;13.15;7.93;;;16.30;99.00;;;;;;5034690;28;20219;-39
2022/05/08 07:56:42;;;;;;;15.27;8.18;;;16.30;98.70;;;;;;5039726;28;20638;-38
2022/05/08 07:59:12;;;;;;;9.83;7.60;;;16.30;98.60;;;;;;5031996;28;20192;-39
2022/05/08 08:01:39;;;;;;;12.10;8.75;;;16.30;98.60;;;;;;5033817;28;20706;-38
2022/05/08 08:04:18;;;;;;;12.20;8.35;;;16.30;98.60;;;;;;5035667;28;20705;-38
2022/05/08 08:06:45;;;;;;;14.45;8.50;;;16.30;98.60;;;;;;5029231;28;20234;-39
2022/05/08 08:09:12;;;;;;;12.45;8.23;;;16.30;98.50;;;;;;5049712;28;20254;-38
2022/05/08 08:11:41;;;;;;;14.30;8.35;;;16.30;98.60;;;;;;5039186;28;20262;-38
2022/05/08 08:14:11;;;;;;;13.48;8.77;;;16.40;98.70;;;;;;5038276;28;20678;-38
2022/05/08 08:17:01;;;;;;;13.90;8.35;;;16.40;98.80;;;;;;5033492;28;20615;-35
2022/05/08 08:19:30;;;;;;;13.90;8.35;;;16.50;98.70;;;;;;5033232;28;20585;-35
2022/05/08 08:21:59;;;;;;;11.07;6.82;;;16.50;98.70;;;;;;5038227;28;20209;-36
2022/05/08 08:24:27;;;;;;;14.02;8.40;;;16.60;98.70;;;;;;5033698;28;20247;-37
2022/05/08 08:26:56;;;;;;;13.63;8.07;;;16.60;98.80;;;;;;5047762;28;20214;-37
2022/05/08 08:29:23;;;;;;;17.02;9.35;;;16.70;98.90;;;;;;5048899;28;20737;-35
2022/05/08 08:31:50;;;;;;;12.02;8.20;;;16.70;98.80;;;;;;5048139;28;20208;-36
2022/05/08 08:34:18;;;;;;;15.70;8.80;;;16.80;98.90;;;;;;5040340;28;20679;-38
2022/05/08 08:36:45;;;;;;;14.10;7.80;;;16.80;98.80;;;;;;5033543;28;20322;-38
2022/05/08 08:39:15;;;;;;;16.63;9.13;;;16.80;98.80;;;;;;5032653;28;20790;-39
2022/05/08 08:41:45;;;;;;;12.93;8.52;;;16.80;98.80;;;;;;5030323;28;20200;-37
2022/05/08 08:49:52;;;;;;;20.85;10.00;;;16.80;98.70;;;;;;5048099;28;20238;-36
2022/05/08 08:52:24;;;;;;;15.13;8.70;;;16.80;98.70;;;;;;5033753;28;20204;-37
2022/05/08 08:54:51;;;;;;;13.30;7.50;;;16.80;98.70;;;;;;5043120;28;20736;-37
2022/05/08 08:57:18;;;;;;;17.42;7.63;;;16.80;98.60;;;;;;5049323;28;20718;-37
2022/05/08 08:59:48;;;;;;;10.98;7.47;;;16.70;98.50;;;;;;5049031;28;20573;-36
2022/05/08 09:02:18;;;;;;;12.90;7.25;;;16.70;98.50;;;;;;5043620;28;20289;-37
2022/05/08 09:04:46;;;;;;;12.63;7.73;;;16.80;98.60;;;;;;5045305;28;20200;-37
2022/05/08 09:07:39;;;;;;;15.13;7.90;;;16.80;98.70;;;;;;5032309;28;20655;-37
2022/05/08 09:10:21;;;;;;;10.95;7.88;;;16.90;98.80;;;;;;5029275;28;20213;-36
2022/05/08 09:12:51;;;;;;;14.50;6.97;;;16.90;98.70;;;;;;5035554;28;20299;-35
2022/05/08 09:15:27;;;;;;;13.85;6.95;;;16.90;98.70;;;;;;5026710;28;22063;-34
2022/05/08 09:18:06;;;;;;;12.63;7.72;;;17.00;98.80;;;;;;5028065;28;20209;-36
2022/05/08 09:20:39;;;;;;;14.60;7.55;;;17.00;98.80;;;;;;5025258;28;20228;-37
2022/05/08 09:23:11;;;;;;;13.45;6.88;;;17.00;98.60;;;;;;5031158;28;20236;-38
2022/05/08 09:25:54;;;;;;;14.00;6.88;;;17.00;98.60;;;;;;5037437;28;20208;-37
2022/05/08 09:28:41;;;;;;;12.38;6.13;;;17.00;98.40;;;;;;5028322;28;20211;-36
2022/05/08 09:31:12;;;;;;;9.52;6.18;;;17.00;98.20;;;;;;5029249;28;20663;-37
2022/05/08 09:33:48;;;;;;;12.95;6.38;;;17.00;98.40;;;;;;5037926;28;20590;-36
2022/05/08 09:36:19;;;;;;;9.90;6.00;;;17.00;98.40;;;;;;5046604;28;20322;-35
2022/05/08 09:39:00;;;;;;;11.63;6.32;;;17.10;98.40;;;;;;5044748;28;20295;-38
2022/05/08 09:41:34;;;;;;;11.75;5.40;;;17.10;98.50;;;;;;5049062;28;20214;-38
2022/05/08 09:44:13;;;;;;;10.50;5.07;;;17.20;98.30;;;;;;5037626;28;20208;-36
2022/05/08 09:46:45;;;;;;;11.18;5.25;;;17.20;98.40;;;;;;5042391;28;20301;-37
2022/05/08 09:49:17;;;;;;;9.25;4.93;;;17.30;98.50;;;;;;5040541;28;20207;-37
2022/05/08 09:51:46;;;;;;;10.13;5.20;;;17.20;98.30;;;;;;5046930;28;20202;-38
2022/05/08 09:54:14;;;;;;;11.45;4.88;;;17.30;98.40;;;;;;5033056;28;20252;-38
2022/05/08 09:56:45;;;;;;;8.65;3.90;;;17.40;98.20;;;;;;5041054;28;20251;-36
2022/05/08 09:59:20;;;;;;;9.85;4.07;;;17.40;98.00;;;;;;5012579;28;20201;-39
2022/05/08 10:01:47;;;;;;;9.68;4.72;;;17.30;97.60;;;;;;5030582;28;20195;-37
2022/05/08 10:04:14;;;;;;;11.75;3.88;;;17.30;97.80;;;;;;5035388;28;20207;-37
2022/05/08 10:06:42;;;;;;;8.15;3.63;;;17.30;97.70;;;;;;5045704;28;20215;-35
2022/05/08 10:14:49;;;;;;;8.05;3.42;;;17.50;97.90;;;;;;5046774;28;20264;-35
2022/05/08 10:17:28;;;;;;;6.95;3.92;;;17.50;97.80;;;;;;5035438;28;20730;-39
2022/05/08 10:20:00;;;;;;;6.28;4.05;;;17.60;97.90;;;;;;5037609;28;20423;-36
2022/05/08 10:22:47;;;;;;;10.00;3.78;;;17.60;97.90;;;;;;5039263;28;20216;-37
2022/05/08 10:25:17;;;;;;;7.85;3.00;;;17.70;97.80;;;;;;5026530;28;20200;-36
2022/05/08 10:28:06;;;;;;;8.25;3.15;;;17.70;97.80;;;;;;5026943;28;20209;-37
2022/05/08 10:30:34;;;;;;;9.65;4.10;;;17.70;97.20;;;;;;5010644;28;20197;-37
2022/05/08 10:33:02;;;;;;;7.80;3.30;;;17.80;97.00;;;;;;5030802;28;20287;-37
2022/05/08 10:35:30;;;;;;;7.82;3.75;;;17.70;97.00;;;;;;5043494;28;20228;-37
2022/05/08 10:38:03;;;;;;;8.57;3.50;;;17.80;97.60;;;;;;5027289;28;20213;-36
2022/05/08 10:40:32;;;;;;;7.57;3.33;;;17.80;97.80;;;;;;5031073;28;20766;-38
2022/05/08 10:43:18;;;;;;;7.55;3.10;;;17.90;97.40;;;;;;5027944;28;20575;-38
2022/05/08 10:45:46;;;;;;;6.10;2.83;;;18.00;97.00;;;;;;5030594;28;20261;-39
2022/05/08 10:48:21;;;;;;;5.82;2.50;;;18.00;97.40;;;;;;5018904;28;20650;-39
2022/05/08 10:50:54;;;;;;;7.20;2.40;;;18.10;97.40;;;;;;5035090;28;20649;-39
2022/05/08 10:53:32;;;;;;;7.30;3.10;;;18.10;97.60;;;;;;5045423;28;20220;-39
2022/05/08 10:56:20;;;;;;;8.38;2.67;;;18.10;97.20;;;;;;5036745;28;20330;-40
2022/05/08 10:58:55;;;;;;;5.75;2.15;;;18.10;96.40;;;;;;5027237;28;20216;-40
2022/05/08 11:01:24;;;;;;;4.70;2.08;;;18.20;97.10;;;;;;5034980;28;20680;-39
2022/05/08 11:03:52;;;;;;;6.85;2.28;;;18.20;96.60;;;;;;5046320;28;20212;-40
2022/05/08 11:06:21;;;;;;;5.15;2.05;;;18.10;96.10;;;;;;5036808;28;20320;-39
2022/05/08 11:08:59;;;;;;;4.45;1.90;;;18.10;96.10;;;;;;5028381;28;20259;-39
2022/05/08 11:11:26;;;;;;;4.13;2.13;;;18.10;96.10;;;;;;5025693;28;20235;-39
2022/05/08 11:13:54;;;;;;;5.65;2.13;;;18.10;95.70;;;;;;5037010;28;20306;-40
2022/05/08 11:16:33;;;;;;;4.25;1.77;;;18.20;96.40;;;;;;5043999;28;20309;-39
2022/05/08 11:19:04;;;;;;;4.18;1.90;;;18.30;96.60;;;;;;5047494;28;20216;-38
2022/05/08 11:21:37;;;;;;;4.72;1.77;;;18.30;96.60;;;;;;5046874;28;20228;-36
2022/05/08 11:24:05;;;;;;;4.40;2.10;;;18.40;96.60;;;;;;5044978;28;20263;-35
2022/05/08 11:26:34;;;;;;;4.57;2.08;;;18.40;96.60;;;;;;5045869;28;20221;-36
2022/05/08 11:29:04;;;;;;;3.97;1.52;;;18.50;96.90;;;;;;5042644;28;20307;-37
2022/05/08 11:31:35;;;;;;;3.85;2.03;;;18.50;95.90;;;;;;5050057;28;20208;-35
2022/05/08 11:37:01;;;;;;;6.78;2.10;;;18.60;95.80;;;;;;5030770;28;20224;-35
2022/05/08 11:39:29;;;;;;;5.47;2.22;;;18.60;94.80;;;;;;5033655;28;20259;-35
2022/05/08 11:41:57;;;;;;;5.78;1.70;;;18.60;95.00;;;;;;5031331;28;20216;-37
2022/05/08 11:44:24;;;;;;;3.75;1.80;;;18.50;94.40;;;;;;5048414;28;20337;-35
2022/05/08 11:46:56;;;;;;;7.40;1.95;;;18.60;95.20;;;;;;5039225;28;20693;-35
2022/05/08 11:49:28;;;;;;;5.57;2.00;;;18.60;95.00;;;;;;5037878;28;20207;-34
2022/05/08 11:52:00;;;;;;;4.20;1.60;;;18.60;95.50;;;;;;5050920;28;20316;-37
2022/05/08 11:54:35;;;;;;;5.32;1.90;;;18.70;95.70;;;;;;5041274;28;20207;-35
2022/05/08 11:57:18;;;;;;;4.60;1.67;;;18.70;95.90;;;;;;5047901;28;20248;-37
2022/05/08 11:59:47;;;;;;;5.65;1.80;;;18.80;95.10;;;;;;5032774;28;20560;-36
2022/05/08 12:02:15;;;;;;;5.03;1.70;;;18.80;95.00;;;;;;5031320;28;20223;-36
2022/05/08 12:04:57;;;;;;;5.82;1.90;;;18.90;95.10;;;;;;5033145;28;20197;-36
2022/05/08 12:07:25;;;;;;;5.28;1.73;;;18.90;95.30;;;;;;5038221;28;20295;-36
2022/05/08 12:09:56;;;;;;;2.33;1.40;;;19.00;95.30;;;;;;5027845;28;20217;-37
2022/05/08 12:12:29;;;;;;;3.72;1.63;;;19.00;95.60;;;;;;5026975;28;20677;-38
2022/05/08 12:15:08;;;;;;;4.75;1.77;;;19.10;95.80;;;;;;5029367;28;20252;-34
2022/05/08 12:17:42;;;;;;;6.05;1.80;;;19.20;95.00;;;;;;5030217;28;20746;-42
2022/05/08 12:20:27;;;;;;;5.95;1.77;;;19.20;95.50;;;;;;5028456;28;20201;-36
2022/05/08 12:23:04;;;;;;;3.90;1.90;;;19.30;94.70;;;;;;5031205;28;20212;-36
2022/05/08 12:25:32;;;;;;;4.95;1.70;;;19.30;95.40;;;;;;5047203;28;20583;-36
2022/05/08 12:28:00;;;;;;;7.18;2.10;;;19.40;95.70;;;;;;5028415;28;20220;-37
2022/05/08 12:30:28;;;;;;;5.65;1.98;;;19.50;95.50;;;;;;5029980;28;20205;-36
2022/05/08 12:32:55;;;;;;;3.83;1.83;;;19.60;95.70;;;;;;5027898;28;20299;-38
2022/05/08 12:35:23;;;;;;;4.22;1.40;;;19.60;95.40;;;;;;5042382;28;20212;-37
2022/05/08 12:37:51;;;;;;;2.33;1.38;;;19.70;95.60;;;;;;5029892;28;20229;-37
2022/05/08 12:40:19;;;;;;;5.53;1.58;;;19.70;95.60;;;;;;5029603;28;20200;-37
2022/05/08 12:42:46;;;;;;;3.33;1.40;;;19.70;95.10;;;;;;5032225;28;20687;-39
2022/05/08 12:45:13;;;;;;;5.25;1.67;;;19.80;95.80;;;;;;5038818;28;20208;-39
2022/05/08 12:47:43;;;;;;;8.65;1.80;;;19.80;95.40;;;;;;5048178;28;20208;-37
2022/05/08 12:50:13;;;;;;;4.43;1.50;;;19.80;94.70;;;;;;5041165;28;20671;-36
2022/05/08 12:52:45;;;;;;;5.93;1.90;;;19.90;95.40;;;;;;5028857;28;20228;-38
2022/05/08 12:55:15;;;;;;;8.05;1.67;;;20.00;95.60;;;;;;5037125;28;20216;-37
2022/05/08 13:00:31;;;;;;;3.80;1.30;;;20.00;95.20;;;;;;5036529;28;20709;-37
2022/05/08 13:02:58;;;;;;;6.75;1.73;;;20.10;95.30;;;;;;5028468;28;20208;-36
2022/05/08 13:05:27;;;;;;;3.40;1.70;;;20.10;94.30;;;;;;5038483;28;20205;-38
2022/05/08 13:07:57;;;;;;;3.45;1.20;;;20.10;95.00;;;;;;5033563;28;20213;-37
2022/05/08 13:10:24;;;;;;;6.47;1.95;;;20.20;95.10;;;;;;5033491;28;20264;-37
2022/05/08 13:12:58;;;;;;;2.97;1.42;;;20.20;95.70;;;;;;5035726;28;20244;-35
2022/05/08 13:15:25;;;;;;;3.70;1.50;;;20.30;95.10;;;;;;5031427;28;20267;-37
2022/05/08 13:17:53;;;;;;;4.57;1.20;;;20.40;95.10;;;;;;5034430;28;20277;-37
2022/05/08 13:20:21;;;;;;;4.30;1.35;;;20.40;95.40;;;;;;5047838;28;20217;-36
2022/05/08 13:22:48;;;;;;;4.32;1.30;;;20.40;95.10;;;;;;5037807;28;20197;-37
2022/05/08 13:25:15;;;;;;;4.82;1.33;;;20.50;94.30;;;;;;5028996;28;20229;-36
2022/05/08 13:27:43;;;;;;;4.95;1.42;;;20.40;93.70;;;;;;5025980;28;20668;-35
2022/05/08 13:30:14;;;;;;;4.85;1.52;;;20.40;94.40;;;;;;5033540;28;20266;-37
2022/05/08 13:32:42;;;;;;;3.22;1.20;;;20.50;94.10;;;;;;5043193;28;20200;-37